createdAt,value
2023-01-27T08:12:04.130Z,62.34
2023-01-27T08:14:31.463Z,62.10
2023-01-27T08:16:58.643Z,62.47
2023-01-27T08:19:25.960Z,62.40
2023-01-27T08:21:53.121Z,63.10
2023-01-27T08:24:21.606Z,63.79
2023-01-27T08:26:48.859Z,63.01
2023-01-27T08:29:17.754Z,63.31
2023-01-27T08:31:44.904Z,61.89
2023-01-27T08:34:12.171Z,61.56
2023-01-27T08:36:40.871Z,62.10
2023-01-27T08:39:08.532Z,63.51
2023-01-27T08:41:35.819Z,62.36
2023-01-27T08:44:03.122Z,61.86
2023-01-27T08:46:31.763Z,62.27
2023-01-27T08:48:59.017Z,63.23
2023-01-27T08:51:26.283Z,62.45
2023-01-27T08:53:53.515Z,62.11
2023-01-27T08:56:21.006Z,62.26
2023-01-27T08:58:48.226Z,62.80
2023-01-27T09:01:15.576Z,63.15
2023-01-27T09:03:44.369Z,63.36
2023-01-27T09:06:13.217Z,63.54
2023-01-27T09:08:40.809Z,63.54
2023-01-27T09:11:11.553Z,63.57
2023-01-27T09:13:38.751Z,63.10
2023-01-27T09:16:06.272Z,62.79
2023-01-27T09:18:33.628Z,63.20
2023-01-27T09:21:04.887Z,62.33
2023-01-27T09:23:34.899Z,62.77
2023-01-27T09:26:02.242Z,63.02
2023-01-27T09:28:29.407Z,63.94
2023-01-27T09:30:57.561Z,62.86
2023-01-27T09:33:24.829Z,62.18
2023-01-27T09:35:53.159Z,62.73
2023-01-27T09:38:21.862Z,61.63
2023-01-27T09:40:58.494Z,61.58
2023-01-27T09:43:59.063Z,62.21
2023-01-27T09:46:43.569Z,62.02
2023-01-27T09:49:27.424Z,61.91
2023-01-27T09:52:02.023Z,62.07
2023-01-27T09:54:39.462Z,61.96
2023-01-27T09:57:11.599Z,62.38
2023-01-27T09:59:51.686Z,61.65
2023-01-27T10:02:27.098Z,61.85
2023-01-27T10:05:17.808Z,61.99
2023-01-27T10:08:09.976Z,62.59
2023-01-27T10:10:45.210Z,62.80
2023-01-27T10:13:19.309Z,62.61
2023-01-27T10:15:53.219Z,62.72
2023-01-27T10:18:28.969Z,62.31
2023-01-27T10:20:59.757Z,63.54
2023-01-27T10:23:33.929Z,63.33
2023-01-27T10:26:07.119Z,63.68
2023-01-27T10:28:34.292Z,64.95
2023-01-27T10:31:02.179Z,65.39
2023-01-27T10:33:38.208Z,63.94
2023-01-27T10:36:07.314Z,65.57
2023-01-27T10:38:37.834Z,65.43
2023-01-27T10:41:13.793Z,65.17
2023-01-27T10:43:45.915Z,64.69
2023-01-27T10:46:16.733Z,65.27
2023-01-27T10:48:45.616Z,65.01
2023-01-27T10:51:14.278Z,66.69
2023-01-27T10:53:48.892Z,66.23
2023-01-27T10:56:19.732Z,66.50
2023-01-27T10:58:51.716Z,67.05
2023-01-27T11:01:22.170Z,67.22
2023-01-27T11:03:51.838Z,67.43
2023-01-27T11:06:20.529Z,66.50
2023-01-27T11:08:49.815Z,67.11
2023-01-27T11:11:19.115Z,66.05
2023-01-27T11:13:46.496Z,66.21
2023-01-27T11:16:15.289Z,65.33
2023-01-27T11:18:42.601Z,66.07
2023-01-27T11:21:11.128Z,66.96
2023-01-27T11:23:40.184Z,66.57
2023-01-27T11:26:12.570Z,66.16
2023-01-27T11:28:42.942Z,66.81
2023-01-27T11:31:14.247Z,64.94
2023-01-27T11:33:48.750Z,65.06
2023-01-27T11:36:15.927Z,65.16
2023-01-27T11:38:43.164Z,64.65
2023-01-27T11:41:10.467Z,64.52
2023-01-27T11:43:37.662Z,65.75
2023-01-27T11:46:07.299Z,65.94
2023-01-27T11:48:37.999Z,65.20
2023-01-27T11:51:05.946Z,65.97
2023-01-27T11:53:35.793Z,67.17
2023-01-27T11:56:05.381Z,67.26
2023-01-27T11:58:34.487Z,67.03
2023-01-27T12:01:04.439Z,67.94
2023-01-27T12:03:46.490Z,67.85
2023-01-27T12:06:15.261Z,67.61
2023-01-27T12:08:43.381Z,66.47
2023-01-27T12:11:22.013Z,66.80
2023-01-27T12:13:53.610Z,66.87
2023-01-27T12:16:21.128Z,65.84
2023-01-27T12:18:53.669Z,66.55
2023-01-27T12:21:21.212Z,67.05
2023-01-27T12:23:49.056Z,66.66
2023-01-27T12:26:16.259Z,67.67
2023-01-27T12:28:47.821Z,66.85
2023-01-27T12:31:17.772Z,66.73
2023-01-27T12:33:45.924Z,65.92
2023-01-27T12:36:15.267Z,66.04
2023-01-27T12:38:45.659Z,66.36
2023-01-27T12:41:12.867Z,66.58
2023-01-27T12:43:51.118Z,66.81
2023-01-27T12:46:22.457Z,66.71
2023-01-27T12:48:50.705Z,66.03
2023-01-27T12:51:20.721Z,66.66
2023-01-27T12:53:49.202Z,67.03
2023-01-27T12:56:17.385Z,66.80
2023-01-27T12:58:45.223Z,67.00
2023-01-27T13:01:28.920Z,67.15
2023-01-27T13:03:58.234Z,66.20
2023-01-27T13:06:31.665Z,65.49
2023-01-27T13:08:58.866Z,66.46
2023-01-27T13:11:31.678Z,66.85
2023-01-27T13:13:58.932Z,66.10
2023-01-27T13:16:28.222Z,66.40
2023-01-27T13:18:56.179Z,66.40
2023-01-27T17:54:48.935Z,66.23
2023-01-27T17:57:17.288Z,66.57
2023-01-27T17:59:46.704Z,66.81
2023-01-27T18:02:18.707Z,66.80
2023-01-27T18:04:46.142Z,66.23
2023-01-27T18:07:13.518Z,67.05
2023-01-27T18:09:43.875Z,66.04
2023-01-27T18:12:28.771Z,66.79
2023-01-27T18:14:56.054Z,66.08
2023-01-27T18:17:23.808Z,66.37
2023-01-27T18:19:51.473Z,66.93
2023-01-27T18:22:18.855Z,66.86
2023-01-27T18:24:50.295Z,66.88
2023-01-27T18:27:26.566Z,67.10
2023-01-27T18:29:55.612Z,67.38
2023-01-27T18:32:22.914Z,67.57
2023-01-27T18:34:50.716Z,68.20
2023-01-27T18:37:24.247Z,68.19
2023-01-27T18:39:51.752Z,68.27
2023-01-27T18:42:19.831Z,68.49
2023-01-27T18:44:50.525Z,69.25
2023-01-27T18:47:41.497Z,68.49
2023-01-27T18:50:16.075Z,68.22
2023-01-27T18:52:43.488Z,68.11
2023-01-27T18:55:17.893Z,68.13
2023-01-27T18:57:45.519Z,68.14
2023-01-27T19:00:15.467Z,68.78
2023-01-27T19:02:43.402Z,68.40
2023-01-27T19:05:16.125Z,68.16
2023-01-27T19:07:43.453Z,68.68
2023-01-27T19:10:14.353Z,68.21
2023-01-27T19:12:41.581Z,68.11
2023-01-27T19:15:10.131Z,68.01
2023-01-27T19:17:38.718Z,68.21
2023-01-27T19:20:14.315Z,67.78
2023-01-27T19:22:41.539Z,68.05
2023-01-27T19:25:09.289Z,68.72
2023-01-27T19:27:37.610Z,68.29
2023-01-27T19:30:18.907Z,67.57
2023-01-27T19:32:47.624Z,67.61
2023-01-27T19:35:15.217Z,67.61
2023-01-27T19:37:42.504Z,67.05
2023-01-27T19:40:17.969Z,67.61
2023-01-27T19:42:45.290Z,68.00
2023-01-27T19:45:14.113Z,67.41
2023-01-27T19:47:41.695Z,67.34
2023-01-27T19:50:15.026Z,67.16
2023-01-27T19:52:42.254Z,68.18
2023-01-27T19:55:09.904Z,67.36
2023-01-27T19:57:37.090Z,67.28
2023-01-27T20:00:05.086Z,68.04
2023-01-27T20:02:32.359Z,68.05
2023-01-27T20:04:59.564Z,67.58
2023-01-27T20:07:28.284Z,67.30
2023-01-27T20:09:55.425Z,67.56
2023-01-27T20:12:22.725Z,67.22
2023-01-27T20:14:49.924Z,66.85
2023-01-27T20:17:17.144Z,67.28
2023-01-27T20:19:44.724Z,67.59
2023-01-27T20:22:12.720Z,67.87
2023-01-27T20:24:41.427Z,67.71
2023-01-27T20:27:08.541Z,67.45
2023-01-27T20:29:35.884Z,68.04
2023-01-27T20:32:03.077Z,68.11
2023-01-27T20:34:30.344Z,66.77
2023-01-27T20:36:57.509Z,67.85
2023-01-27T20:39:24.969Z,67.52
2023-01-27T20:41:56.563Z,68.55
2023-01-27T20:44:23.706Z,68.16
2023-01-27T20:46:50.926Z,68.96
2023-01-27T20:49:18.028Z,68.70
2023-01-27T20:51:45.298Z,68.70
2023-01-27T20:54:12.608Z,69.28
2023-01-27T20:56:39.755Z,68.69
2023-01-27T20:59:08.385Z,68.84
2023-01-27T21:01:35.799Z,68.23
